sensor_id;sensor_type;location;lat;lon;timestamp;P1;durP1;ratioP1;P2;durP2;ratioP2
41253;SDS011;26987;59.928;30.306;2022-08-01T00:02:28;12.65;;;5.20;;
41253;SDS011;26987;59.928;30.306;2022-08-01T00:04:56;14.85;;;5.80;;
41253;SDS011;26987;59.928;30.306;2022-08-01T00:07:26;18.27;;;5.63;;
41253;SDS011;26987;59.928;30.306;2022-08-01T00:09:53;13.45;;;6.32;;
41253;SDS011;26987;59.928;30.306;2022-08-01T00:12:21;18.10;;;6.22;;
41253;SDS011;26987;59.928;30.306;2022-08-01T00:14:49;15.02;;;5.47;;
41253;SDS011;26987;59.928;30.306;2022-08-01T00:17:17;20.63;;;5.43;;
41253;SDS011;26987;59.928;30.306;2022-08-01T00:19:47;25.38;;;7.03;;
41253;SDS011;26987;59.928;30.306;2022-08-01T00:22:15;11.77;;;5.72;;
41253;SDS011;26987;59.928;30.306;2022-08-01T00:24:43;18.80;;;6.25;;
41253;SDS011;26987;59.928;30.306;2022-08-01T00:27:11;18.58;;;6.72;;
41253;SDS011;26987;59.928;30.306;2022-08-01T00:29:38;24.70;;;6.20;;
41253;SDS011;26987;59.928;30.306;2022-08-01T00:32:06;15.65;;;5.78;;
41253;SDS011;26987;59.928;30.306;2022-08-01T00:34:34;17.90;;;5.82;;
41253;SDS011;26987;59.928;30.306;2022-08-01T00:37:04;15.13;;;5.72;;
41253;SDS011;26987;59.928;30.306;2022-08-01T00:39:32;16.52;;;6.47;;
41253;SDS011;26987;59.928;30.306;2022-08-01T00:42:00;15.27;;;5.28;;
41253;SDS011;26987;59.928;30.306;2022-08-01T00:44:33;12.98;;;5.25;;
41253;SDS011;26987;59.928;30.306;2022-08-01T00:47:02;12.75;;;5.00;;
41253;SDS011;26987;59.928;30.306;2022-08-01T00:49:30;14.63;;;5.18;;
41253;SDS011;26987;59.928;30.306;2022-08-01T00:51:58;9.95;;;4.65;;
41253;SDS011;26987;59.928;30.306;2022-08-01T00:54:28;26.38;;;5.88;;
41253;SDS011;26987;59.928;30.306;2022-08-01T00:56:57;16.05;;;5.38;;
41253;SDS011;26987;59.928;30.306;2022-08-01T00:59:25;11.93;;;5.38;;
41253;SDS011;26987;59.928;30.306;2022-08-01T01:01:54;11.35;;;4.13;;
41253;SDS011;26987;59.928;30.306;2022-08-01T01:04:22;9.82;;;5.05;;
41253;SDS011;26987;59.928;30.306;2022-08-01T01:06:52;12.98;;;4.00;;
41253;SDS011;26987;59.928;30.306;2022-08-01T01:09:32;20.33;;;5.40;;
41253;SDS011;26987;59.928;30.306;2022-08-01T01:12:12;17.20;;;5.93;;
41253;SDS011;26987;59.928;30.306;2022-08-01T01:14:49;18.05;;;5.80;;
41253;SDS011;26987;59.928;30.306;2022-08-01T01:17:24;16.48;;;5.97;;
41253;SDS011;26987;59.928;30.306;2022-08-01T01:19:59;14.73;;;5.35;;
41253;SDS011;26987;59.928;30.306;2022-08-01T01:22:46;13.52;;;5.38;;
41253;SDS011;26987;59.928;30.306;2022-08-01T01:25:26;17.45;;;5.60;;
41253;SDS011;26987;59.928;30.306;2022-08-01T01:28:09;34.30;;;5.28;;
41253;SDS011;26987;59.928;30.306;2022-08-01T01:30:46;12.23;;;4.75;;
41253;SDS011;26987;59.928;30.306;2022-08-01T01:33:17;18.38;;;4.90;;
41253;SDS011;26987;59.928;30.306;2022-08-01T01:35:52;11.50;;;4.45;;
41253;SDS011;26987;59.928;30.306;2022-08-01T01:38:24;19.25;;;5.43;;
41253;SDS011;26987;59.928;30.306;2022-08-01T01:40:56;11.98;;;4.53;;
41253;SDS011;26987;59.928;30.306;2022-08-01T01:43:26;14.45;;;4.85;;
41253;SDS011;26987;59.928;30.306;2022-08-01T01:45:58;13.20;;;4.90;;
41253;SDS011;26987;59.928;30.306;2022-08-01T01:48:27;11.30;;;4.43;;
41253;SDS011;26987;59.928;30.306;2022-08-01T01:50:56;12.75;;;5.25;;
41253;SDS011;26987;59.928;30.306;2022-08-01T01:53:26;17.52;;;5.68;;
41253;SDS011;26987;59.928;30.306;2022-08-01T01:55:56;14.93;;;5.13;;
41253;SDS011;26987;59.928;30.306;2022-08-01T01:58:26;16.90;;;5.43;;
41253;SDS011;26987;59.928;30.306;2022-08-01T02:01:00;15.77;;;5.07;;
41253;SDS011;26987;59.928;30.306;2022-08-01T02:03:29;13.02;;;4.72;;
41253;SDS011;26987;59.928;30.306;2022-08-01T02:05:58;16.02;;;5.95;;
41253;SDS011;26987;59.928;30.306;2022-08-01T02:08:28;13.02;;;5.43;;
41253;SDS011;26987;59.928;30.306;2022-08-01T02:10:59;13.82;;;4.88;;
41253;SDS011;26987;59.928;30.306;2022-08-01T02:13:49;15.88;;;4.65;;
41253;SDS011;26987;59.928;30.306;2022-08-01T02:16:22;20.27;;;5.22;;
41253;SDS011;26987;59.928;30.306;2022-08-01T02:18:53;17.60;;;5.20;;
41253;SDS011;26987;59.928;30.306;2022-08-01T02:21:23;14.18;;;4.43;;
41253;SDS011;26987;59.928;30.306;2022-08-01T02:23:55;14.05;;;4.57;;
41253;SDS011;26987;59.928;30.306;2022-08-01T02:26:30;17.13;;;5.85;;
41253;SDS011;26987;59.928;30.306;2022-08-01T02:29:00;22.50;;;4.90;;
41253;SDS011;26987;59.928;30.306;2022-08-01T02:31:37;12.68;;;4.20;;
41253;SDS011;26987;59.928;30.306;2022-08-01T02:34:09;13.00;;;4.20;;
41253;SDS011;26987;59.928;30.306;2022-08-01T02:36:40;12.48;;;4.60;;
41253;SDS011;26987;59.928;30.306;2022-08-01T02:39:11;14.05;;;5.13;;
41253;SDS011;26987;59.928;30.306;2022-08-01T02:41:43;11.20;;;4.60;;
41253;SDS011;26987;59.928;30.306;2022-08-01T02:44:15;13.48;;;5.07;;
41253;SDS011;26987;59.928;30.306;2022-08-01T02:46:49;17.27;;;5.57;;
41253;SDS011;26987;59.928;30.306;2022-08-01T02:49:20;13.00;;;4.75;;
41253;SDS011;26987;59.928;30.306;2022-08-01T02:51:49;12.27;;;4.68;;
41253;SDS011;26987;59.928;30.306;2022-08-01T02:54:20;8.02;;;3.85;;
41253;SDS011;26987;59.928;30.306;2022-08-01T02:56:49;8.20;;;4.15;;
41253;SDS011;26987;59.928;30.306;2022-08-01T02:59:19;12.30;;;4.68;;
41253;SDS011;26987;59.928;30.306;2022-08-01T03:01:53;8.57;;;4.22;;
41253;SDS011;26987;59.928;30.306;2022-08-01T03:04:22;19.08;;;5.78;;
41253;SDS011;26987;59.928;30.306;2022-08-01T03:06:51;13.60;;;4.93;;
41253;SDS011;26987;59.928;30.306;2022-08-01T03:09:23;10.82;;;3.83;;
41253;SDS011;26987;59.928;30.306;2022-08-01T03:11:52;12.65;;;4.65;;
41253;SDS011;26987;59.928;30.306;2022-08-01T03:14:23;14.57;;;4.93;;
41253;SDS011;26987;59.928;30.306;2022-08-01T03:16:53;12.13;;;4.28;;
41253;SDS011;26987;59.928;30.306;2022-08-01T03:19:24;12.55;;;4.25;;
41253;SDS011;26987;59.928;30.306;2022-08-01T03:21:53;9.02;;;3.95;;
41253;SDS011;26987;59.928;30.306;2022-08-01T03:24:25;11.27;;;4.32;;
41253;SDS011;26987;59.928;30.306;2022-08-01T03:26:54;12.98;;;4.10;;
41253;SDS011;26987;59.928;30.306;2022-08-01T03:29:25;9.43;;;4.75;;
41253;SDS011;26987;59.928;30.306;2022-08-01T03:31:57;11.55;;;4.22;;
41253;SDS011;26987;59.928;30.306;2022-08-01T03:34:27;9.60;;;4.18;;
41253;SDS011;26987;59.928;30.306;2022-08-01T03:36:56;14.75;;;4.30;;
41253;SDS011;26987;59.928;30.306;2022-08-01T03:39:31;11.35;;;3.25;;
41253;SDS011;26987;59.928;30.306;2022-08-01T03:42:05;11.68;;;4.40;;
41253;SDS011;26987;59.928;30.306;2022-08-01T03:44:37;10.40;;;4.07;;
41253;SDS011;26987;59.928;30.306;2022-08-01T03:47:09;15.20;;;5.90;;
41253;SDS011;26987;59.928;30.306;2022-08-01T03:49:40;7.07;;;3.67;;
41253;SDS011;26987;59.928;30.306;2022-08-01T03:52:10;12.88;;;4.55;;
41253;SDS011;26987;59.928;30.306;2022-08-01T03:54:40;12.13;;;4.40;;
41253;SDS011;26987;59.928;30.306;2022-08-01T03:57:12;9.32;;;4.22;;
41253;SDS011;26987;59.928;30.306;2022-08-01T03:59:41;10.35;;;4.30;;
41253;SDS011;26987;59.928;30.306;2022-08-01T04:02:11;9.57;;;4.40;;
41253;SDS011;26987;59.928;30.306;2022-08-01T04:04:41;13.25;;;4.78;;
41253;SDS011;26987;59.928;30.306;2022-08-01T04:07:20;16.52;;;5.22;;
41253;SDS011;26987;59.928;30.306;2022-08-01T04:09:50;11.07;;;4.47;;
41253;SDS011;26987;59.928;30.306;2022-08-01T04:12:18;11.10;;;3.38;;
41253;SDS011;26987;59.928;30.306;2022-08-01T04:14:46;7.03;;;3.35;;
41253;SDS011;26987;59.928;30.306;2022-08-01T04:17:16;14.93;;;3.00;;
41253;SDS011;26987;59.928;30.306;2022-08-01T04:19:44;7.45;;;3.00;;
41253;SDS011;26987;59.928;30.306;2022-08-01T04:22:13;7.97;;;3.13;;
41253;SDS011;26987;59.928;30.306;2022-08-01T04:24:42;8.32;;;3.10;;
41253;SDS011;26987;59.928;30.306;2022-08-01T04:27:16;11.02;;;3.38;;
41253;SDS011;26987;59.928;30.306;2022-08-01T04:29:56;8.70;;;3.10;;
41253;SDS011;26987;59.928;30.306;2022-08-01T04:32:27;15.60;;;3.60;;
41253;SDS011;26987;59.928;30.306;2022-08-01T04:34:59;8.27;;;3.08;;
41253;SDS011;26987;59.928;30.306;2022-08-01T04:37:30;7.03;;;2.80;;
41253;SDS011;26987;59.928;30.306;2022-08-01T04:39:58;7.25;;;2.40;;
41253;SDS011;26987;59.928;30.306;2022-08-01T04:42:28;10.10;;;3.13;;
41253;SDS011;26987;59.928;30.306;2022-08-01T04:44:56;6.40;;;2.10;;
41253;SDS011;26987;59.928;30.306;2022-08-01T04:47:25;5.80;;;2.35;;
41253;SDS011;26987;59.928;30.306;2022-08-01T04:49:55;8.20;;;2.45;;
41253;SDS011;26987;59.928;30.306;2022-08-01T04:52:31;2.95;;;1.98;;
41253;SDS011;26987;59.928;30.306;2022-08-01T04:55:00;4.47;;;2.15;;
41253;SDS011;26987;59.928;30.306;2022-08-01T04:57:29;6.63;;;2.25;;
41253;SDS011;26987;59.928;30.306;2022-08-01T04:59:57;8.02;;;2.03;;
41253;SDS011;26987;59.928;30.306;2022-08-01T05:02:26;4.82;;;2.10;;
41253;SDS011;26987;59.928;30.306;2022-08-01T05:04:56;10.25;;;2.80;;
41253;SDS011;26987;59.928;30.306;2022-08-01T05:07:24;6.65;;;3.00;;
41253;SDS011;26987;59.928;30.306;2022-08-01T05:09:52;3.17;;;2.08;;
41253;SDS011;26987;59.928;30.306;2022-08-01T05:12:20;7.68;;;2.30;;
41253;SDS011;26987;59.928;30.306;2022-08-01T05:14:49;5.50;;;2.30;;
41253;SDS011;26987;59.928;30.306;2022-08-01T05:17:16;5.25;;;2.28;;
41253;SDS011;26987;59.928;30.306;2022-08-01T05:19:44;3.70;;;1.80;;
41253;SDS011;26987;59.928;30.306;2022-08-01T05:22:14;5.63;;;1.80;;
41253;SDS011;26987;59.928;30.306;2022-08-01T05:24:42;4.43;;;2.00;;
41253;SDS011;26987;59.928;30.306;2022-08-01T05:27:10;3.65;;;1.45;;
41253;SDS011;26987;59.928;30.306;2022-08-01T05:29:39;3.95;;;1.90;;
41253;SDS011;26987;59.928;30.306;2022-08-01T05:32:08;3.30;;;1.70;;
41253;SDS011;26987;59.928;30.306;2022-08-01T05:34:36;3.70;;;1.70;;
41253;SDS011;26987;59.928;30.306;2022-08-01T05:37:04;6.13;;;1.70;;
41253;SDS011;26987;59.928;30.306;2022-08-01T05:39:34;4.47;;;1.80;;
41253;SDS011;26987;59.928;30.306;2022-08-01T05:42:02;3.38;;;2.00;;
41253;SDS011;26987;59.928;30.306;2022-08-01T05:44:30;4.85;;;2.25;;
41253;SDS011;26987;59.928;30.306;2022-08-01T05:46:58;7.80;;;2.45;;
41253;SDS011;26987;59.928;30.306;2022-08-01T05:49:26;4.03;;;1.83;;
41253;SDS011;26987;59.928;30.306;2022-08-01T05:51:54;4.22;;;2.10;;
41253;SDS011;26987;59.928;30.306;2022-08-01T05:54:22;3.88;;;1.55;;
41253;SDS011;26987;59.928;30.306;2022-08-01T05:56:52;4.43;;;1.70;;
41253;SDS011;26987;59.928;30.306;2022-08-01T05:59:20;3.03;;;1.90;;
41253;SDS011;26987;59.928;30.306;2022-08-01T06:01:48;5.90;;;1.90;;
41253;SDS011;26987;59.928;30.306;2022-08-01T06:04:16;8.75;;;3.42;;
41253;SDS011;26987;59.928;30.306;2022-08-01T06:06:44;7.10;;;2.03;;
41253;SDS011;26987;59.928;30.306;2022-08-01T06:09:12;6.40;;;2.20;;
41253;SDS011;26987;59.928;30.306;2022-08-01T06:11:42;2.60;;;1.50;;
41253;SDS011;26987;59.928;30.306;2022-08-01T06:14:11;3.58;;;1.63;;
41253;SDS011;26987;59.928;30.306;2022-08-01T06:16:39;5.68;;;1.67;;
41253;SDS011;26987;59.928;30.306;2022-08-01T06:19:07;3.55;;;1.60;;
41253;SDS011;26987;59.928;30.306;2022-08-01T06:21:35;6.93;;;1.92;;
41253;SDS011;26987;59.928;30.306;2022-08-01T06:24:03;9.55;;;2.28;;
41253;SDS011;26987;59.928;30.306;2022-08-01T06:26:32;4.32;;;1.65;;
41253;SDS011;26987;59.928;30.306;2022-08-01T06:29:01;4.85;;;2.00;;
41253;SDS011;26987;59.928;30.306;2022-08-01T06:31:30;8.55;;;1.60;;
41253;SDS011;26987;59.928;30.306;2022-08-01T06:33:58;4.70;;;1.95;;
41253;SDS011;26987;59.928;30.306;2022-08-01T06:36:26;7.10;;;1.75;;
41253;SDS011;26987;59.928;30.306;2022-08-01T06:38:54;5.50;;;2.25;;
41253;SDS011;26987;59.928;30.306;2022-08-01T06:41:22;7.47;;;1.92;;
41253;SDS011;26987;59.928;30.306;2022-08-01T06:43:50;6.07;;;1.50;;
41253;SDS011;26987;59.928;30.306;2022-08-01T06:46:18;4.32;;;1.38;;
41253;SDS011;26987;59.928;30.306;2022-08-01T06:48:47;8.15;;;2.13;;
41253;SDS011;26987;59.928;30.306;2022-08-01T06:51:15;8.07;;;1.98;;
41253;SDS011;26987;59.928;30.306;2022-08-01T06:53:45;5.68;;;2.30;;
41253;SDS011;26987;59.928;30.306;2022-08-01T06:56:13;6.40;;;1.90;;
41253;SDS011;26987;59.928;30.306;2022-08-01T06:58:41;5.82;;;2.10;;
41253;SDS011;26987;59.928;30.306;2022-08-01T07:01:09;4.60;;;1.85;;
41253;SDS011;26987;59.928;30.306;2022-08-01T07:03:37;5.97;;;2.42;;
41253;SDS011;26987;59.928;30.306;2022-08-01T07:06:07;2.92;;;1.83;;
41253;SDS011;26987;59.928;30.306;2022-08-01T07:08:35;10.27;;;2.20;;
41253;SDS011;26987;59.928;30.306;2022-08-01T07:11:03;7.40;;;1.75;;
41253;SDS011;26987;59.928;30.306;2022-08-01T07:13:31;7.28;;;2.22;;
41253;SDS011;26987;59.928;30.306;2022-08-01T07:15:59;5.95;;;1.60;;
41253;SDS011;26987;59.928;30.306;2022-08-01T07:18:27;5.63;;;1.52;;
41253;SDS011;26987;59.928;30.306;2022-08-01T07:20:55;7.90;;;1.40;;
41253;SDS011;26987;59.928;30.306;2022-08-01T07:23:25;7.68;;;2.17;;
41253;SDS011;26987;59.928;30.306;2022-08-01T07:25:52;7.55;;;1.70;;
41253;SDS011;26987;59.928;30.306;2022-08-01T07:28:20;8.40;;;1.92;;
41253;SDS011;26987;59.928;30.306;2022-08-01T07:30:48;3.70;;;1.65;;
41253;SDS011;26987;59.928;30.306;2022-08-01T07:33:16;4.05;;;1.65;;
41253;SDS011;26987;59.928;30.306;2022-08-01T07:35:44;7.78;;;2.30;;
41253;SDS011;26987;59.928;30.306;2022-08-01T07:38:13;5.55;;;1.92;;
41253;SDS011;26987;59.928;30.306;2022-08-01T07:40:44;4.68;;;1.77;;
41253;SDS011;26987;59.928;30.306;2022-08-01T07:43:12;6.07;;;1.67;;
41253;SDS011;26987;59.928;30.306;2022-08-01T07:45:40;7.53;;;1.40;;
41253;SDS011;26987;59.928;30.306;2022-08-01T07:48:08;3.03;;;1.50;;
41253;SDS011;26987;59.928;30.306;2022-08-01T07:50:36;4.38;;;1.30;;
41253;SDS011;26987;59.928;30.306;2022-08-01T07:53:05;4.60;;;1.80;;
41253;SDS011;26987;59.928;30.306;2022-08-01T07:55:33;6.05;;;3.90;;
41253;SDS011;26987;59.928;30.306;2022-08-01T07:58:02;8.43;;;1.92;;
41253;SDS011;26987;59.928;30.306;2022-08-01T08:00:30;6.55;;;1.70;;
41253;SDS011;26987;59.928;30.306;2022-08-01T08:02:58;4.13;;;1.50;;
41253;SDS011;26987;59.928;30.306;2022-08-01T08:05:26;6.57;;;2.15;;
41253;SDS011;26987;59.928;30.306;2022-08-01T08:07:54;10.02;;;2.72;;
41253;SDS011;26987;59.928;30.306;2022-08-01T08:10:22;5.63;;;1.65;;
41253;SDS011;26987;59.928;30.306;2022-08-01T08:12:50;7.60;;;2.30;;
41253;SDS011;26987;59.928;30.306;2022-08-01T08:15:19;7.63;;;1.50;;
41253;SDS011;26987;59.928;30.306;2022-08-01T08:17:47;2.85;;;1.27;;
41253;SDS011;26987;59.928;30.306;2022-08-01T08:20:15;3.40;;;1.75;;
41253;SDS011;26987;59.928;30.306;2022-08-01T08:22:43;2.05;;;1.20;;
41253;SDS011;26987;59.928;30.306;2022-08-01T08:25:11;4.45;;;1.33;;
41253;SDS011;26987;59.928;30.306;2022-08-01T08:27:39;8.80;;;1.67;;
41253;SDS011;26987;59.928;30.306;2022-08-01T08:30:07;3.75;;;1.50;;
41253;SDS011;26987;59.928;30.306;2022-08-01T08:32:39;12.63;;;3.60;;
41253;SDS011;26987;59.928;30.306;2022-08-01T08:35:07;5.50;;;1.67;;
41253;SDS011;26987;59.928;30.306;2022-08-01T08:37:35;5.82;;;2.00;;
41253;SDS011;26987;59.928;30.306;2022-08-01T08:40:05;4.13;;;1.90;;
41253;SDS011;26987;59.928;30.306;2022-08-01T08:42:33;14.50;;;2.38;;
41253;SDS011;26987;59.928;30.306;2022-08-01T08:45:02;4.47;;;2.00;;
41253;SDS011;26987;59.928;30.306;2022-08-01T08:47:30;8.63;;;2.00;;
41253;SDS011;26987;59.928;30.306;2022-08-01T08:50:02;8.77;;;3.08;;
41253;SDS011;26987;59.928;30.306;2022-08-01T08:52:33;11.77;;;3.33;;
41253;SDS011;26987;59.928;30.306;2022-08-01T08:55:05;9.07;;;3.50;;
41253;SDS011;26987;59.928;30.306;2022-08-01T08:57:35;9.70;;;4.22;;
41253;SDS011;26987;59.928;30.306;2022-08-01T09:00:06;8.95;;;3.78;;
41253;SDS011;26987;59.928;30.306;2022-08-01T09:02:39;15.07;;;5.05;;
41253;SDS011;26987;59.928;30.306;2022-08-01T09:05:10;13.32;;;4.72;;
41253;SDS011;26987;59.928;30.306;2022-08-01T09:07:38;15.40;;;5.15;;
41253;SDS011;26987;59.928;30.306;2022-08-01T09:10:07;12.02;;;5.18;;
41253;SDS011;26987;59.928;30.306;2022-08-01T09:12:36;17.50;;;5.63;;
41253;SDS011;26987;59.928;30.306;2022-08-01T09:15:04;12.18;;;5.40;;
41253;SDS011;26987;59.928;30.306;2022-08-01T09:17:39;11.45;;;4.90;;
41253;SDS011;26987;59.928;30.306;2022-08-01T09:20:09;13.25;;;4.53;;
41253;SDS011;26987;59.928;30.306;2022-08-01T09:22:50;9.63;;;3.83;;
41253;SDS011;26987;59.928;30.306;2022-08-01T09:25:18;5.75;;;3.33;;
41253;SDS011;26987;59.928;30.306;2022-08-01T09:27:47;6.53;;;3.25;;
41253;SDS011;26987;59.928;30.306;2022-08-01T09:30:15;8.25;;;2.55;;
41253;SDS011;26987;59.928;30.306;2022-08-01T09:32:54;6.22;;;2.00;;
41253;SDS011;26987;59.928;30.306;2022-08-01T09:35:24;5.20;;;2.30;;
41253;SDS011;26987;59.928;30.306;2022-08-01T09:37:59;7.50;;;2.88;;
41253;SDS011;26987;59.928;30.306;2022-08-01T09:40:47;12.18;;;2.75;;
41253;SDS011;26987;59.928;30.306;2022-08-01T09:43:17;6.35;;;2.65;;
41253;SDS011;26987;59.928;30.306;2022-08-01T09:45:45;7.85;;;2.53;;
41253;SDS011;26987;59.928;30.306;2022-08-01T09:48:14;5.40;;;2.80;;
41253;SDS011;26987;59.928;30.306;2022-08-01T09:50:44;6.40;;;2.53;;
41253;SDS011;26987;59.928;30.306;2022-08-01T09:53:13;13.27;;;2.78;;
41253;SDS011;26987;59.928;30.306;2022-08-01T09:55:42;11.45;;;2.83;;
41253;SDS011;26987;59.928;30.306;2022-08-01T09:58:11;5.45;;;2.42;;
41253;SDS011;26987;59.928;30.306;2022-08-01T10:00:39;10.52;;;2.00;;
41253;SDS011;26987;59.928;30.306;2022-08-01T10:05:56;5.85;;;2.30;;
41253;SDS011;26987;59.928;30.306;2022-08-01T10:08:24;6.95;;;1.90;;
41253;SDS011;26987;59.928;30.306;2022-08-01T10:11:06;6.55;;;2.47;;
41253;SDS011;26987;59.928;30.306;2022-08-01T10:13:35;7.97;;;2.40;;
41253;SDS011;26987;59.928;30.306;2022-08-01T10:16:03;8.20;;;2.92;;
41253;SDS011;26987;59.928;30.306;2022-08-01T10:18:33;4.15;;;2.08;;
41253;SDS011;26987;59.928;30.306;2022-08-01T10:21:03;7.97;;;2.08;;
41253;SDS011;26987;59.928;30.306;2022-08-01T10:23:33;5.15;;;1.75;;
41253;SDS011;26987;59.928;30.306;2022-08-01T10:26:02;3.58;;;2.33;;
41253;SDS011;26987;59.928;30.306;2022-08-01T10:28:32;6.43;;;2.78;;
41253;SDS011;26987;59.928;30.306;2022-08-01T10:31:03;7.88;;;2.05;;
41253;SDS011;26987;59.928;30.306;2022-08-01T10:33:32;3.65;;;2.20;;
41253;SDS011;26987;59.928;30.306;2022-08-01T10:36:02;6.88;;;2.30;;
41253;SDS011;26987;59.928;30.306;2022-08-01T10:38:32;5.82;;;2.80;;
41253;SDS011;26987;59.928;30.306;2022-08-01T10:41:02;9.25;;;2.78;;
41253;SDS011;26987;59.928;30.306;2022-08-01T10:43:30;4.88;;;2.63;;
41253;SDS011;26987;59.928;30.306;2022-08-01T10:45:58;6.45;;;2.25;;
41253;SDS011;26987;59.928;30.306;2022-08-01T10:48:29;8.00;;;3.15;;
41253;SDS011;26987;59.928;30.306;2022-08-01T10:51:01;6.53;;;1.77;;
41253;SDS011;26987;59.928;30.306;2022-08-01T10:53:32;2.97;;;1.65;;
41253;SDS011;26987;59.928;30.306;2022-08-01T10:56:01;2.53;;;1.02;;
41253;SDS011;26987;59.928;30.306;2022-08-01T10:58:32;4.35;;;1.10;;
41253;SDS011;26987;59.928;30.306;2022-08-01T11:01:16;2.63;;;1.08;;
41253;SDS011;26987;59.928;30.306;2022-08-01T11:06:53;3.17;;;0.98;;
41253;SDS011;26987;59.928;30.306;2022-08-01T11:09:37;2.63;;;0.88;;
41253;SDS011;26987;59.928;30.306;2022-08-01T11:12:08;8.13;;;1.10;;
41253;SDS011;26987;59.928;30.306;2022-08-01T11:17:43;4.00;;;1.17;;
41253;SDS011;26987;59.928;30.306;2022-08-01T11:20:15;3.38;;;1.35;;
41253;SDS011;26987;59.928;30.306;2022-08-01T11:28:37;3.45;;;1.65;;
41253;SDS011;26987;59.928;30.306;2022-08-01T11:33:53;5.47;;;1.52;;
41253;SDS011;26987;59.928;30.306;2022-08-01T11:36:21;5.40;;;1.42;;
41253;SDS011;26987;59.928;30.306;2022-08-01T11:38:50;4.53;;;1.77;;
41253;SDS011;26987;59.928;30.306;2022-08-01T11:41:43;5.03;;;1.27;;
41253;SDS011;26987;59.928;30.306;2022-08-01T11:44:15;4.95;;;1.08;;
41253;SDS011;26987;59.928;30.306;2022-08-01T11:46:45;6.63;;;1.55;;
41253;SDS011;26987;59.928;30.306;2022-08-01T11:49:27;4.47;;;1.95;;
41253;SDS011;26987;59.928;30.306;2022-08-01T11:52:12;6.22;;;2.10;;
41253;SDS011;26987;59.928;30.306;2022-08-01T11:54:42;10.63;;;1.80;;
41253;SDS011;26987;59.928;30.306;2022-08-01T11:57:15;5.97;;;2.05;;
41253;SDS011;26987;59.928;30.306;2022-08-01T11:59:46;9.65;;;2.22;;
41253;SDS011;26987;59.928;30.306;2022-08-01T12:02:16;3.72;;;2.13;;
41253;SDS011;26987;59.928;30.306;2022-08-01T12:04:48;5.70;;;2.38;;
41253;SDS011;26987;59.928;30.306;2022-08-01T12:07:21;8.10;;;2.67;;
41253;SDS011;26987;59.928;30.306;2022-08-01T12:09:56;6.38;;;1.73;;
41253;SDS011;26987;59.928;30.306;2022-08-01T12:12:28;4.70;;;2.42;;
41253;SDS011;26987;59.928;30.306;2022-08-01T12:14:57;5.00;;;1.67;;
41253;SDS011;26987;59.928;30.306;2022-08-01T12:17:33;4.68;;;2.28;;
41253;SDS011;26987;59.928;30.306;2022-08-01T12:20:03;3.45;;;1.90;;
41253;SDS011;26987;59.928;30.306;2022-08-01T12:22:33;4.28;;;2.33;;
41253;SDS011;26987;59.928;30.306;2022-08-01T12:25:04;3.83;;;2.40;;
41253;SDS011;26987;59.928;30.306;2022-08-01T12:27:35;4.70;;;2.20;;
41253;SDS011;26987;59.928;30.306;2022-08-01T12:30:04;5.28;;;2.40;;
41253;SDS011;26987;59.928;30.306;2022-08-01T12:32:34;10.85;;;2.80;;
41253;SDS011;26987;59.928;30.306;2022-08-01T12:35:04;3.97;;;2.05;;
41253;SDS011;26987;59.928;30.306;2022-08-01T12:37:34;7.07;;;2.67;;
41253;SDS011;26987;59.928;30.306;2022-08-01T12:40:10;4.60;;;2.53;;
41253;SDS011;26987;59.928;30.306;2022-08-01T12:42:44;7.85;;;2.50;;
41253;SDS011;26987;59.928;30.306;2022-08-01T12:45:13;6.68;;;3.08;;
41253;SDS011;26987;59.928;30.306;2022-08-01T12:47:42;5.15;;;3.13;;
41253;SDS011;26987;59.928;30.306;2022-08-01T12:50:12;6.75;;;3.55;;
41253;SDS011;26987;59.928;30.306;2022-08-01T12:52:42;4.60;;;3.05;;
41253;SDS011;26987;59.928;30.306;2022-08-01T12:55:11;8.82;;;4.10;;
41253;SDS011;26987;59.928;30.306;2022-08-01T12:57:41;12.48;;;4.90;;
41253;SDS011;26987;59.928;30.306;2022-08-01T13:00:17;9.90;;;4.57;;
41253;SDS011;26987;59.928;30.306;2022-08-01T13:02:47;9.98;;;6.10;;
41253;SDS011;26987;59.928;30.306;2022-08-01T13:05:16;13.95;;;6.32;;
41253;SDS011;26987;59.928;30.306;2022-08-01T13:07:46;9.15;;;5.00;;
41253;SDS011;26987;59.928;30.306;2022-08-01T13:10:23;8.05;;;3.75;;
41253;SDS011;26987;59.928;30.306;2022-08-01T13:12:55;5.40;;;3.55;;
41253;SDS011;26987;59.928;30.306;2022-08-01T13:15:25;6.80;;;3.97;;
41253;SDS011;26987;59.928;30.306;2022-08-01T13:17:58;8.88;;;2.65;;
41253;SDS011;26987;59.928;30.306;2022-08-01T13:20:31;13.85;;;2.92;;
41253;SDS011;26987;59.928;30.306;2022-08-01T13:23:10;3.40;;;1.90;;
41253;SDS011;26987;59.928;30.306;2022-08-01T13:25:47;4.63;;;1.70;;
41253;SDS011;26987;59.928;30.306;2022-08-01T13:28:18;5.80;;;2.45;;
41253;SDS011;26987;59.928;30.306;2022-08-01T13:30:54;7.75;;;2.35;;
41253;SDS011;26987;59.928;30.306;2022-08-01T13:33:24;2.83;;;1.50;;
41253;SDS011;26987;59.928;30.306;2022-08-01T13:35:53;1.98;;;1.30;;
41253;SDS011;26987;59.928;30.306;2022-08-01T13:38:22;5.45;;;1.77;;
41253;SDS011;26987;59.928;30.306;2022-08-01T13:41:23;3.05;;;1.58;;
41253;SDS011;26987;59.928;30.306;2022-08-01T13:43:53;4.28;;;1.98;;
41253;SDS011;26987;59.928;30.306;2022-08-01T13:46:21;4.32;;;1.90;;
41253;SDS011;26987;59.928;30.306;2022-08-01T13:48:49;3.92;;;2.00;;
41253;SDS011;26987;59.928;30.306;2022-08-01T13:51:17;8.63;;;2.50;;
41253;SDS011;26987;59.928;30.306;2022-08-01T13:53:45;6.70;;;2.72;;
41253;SDS011;26987;59.928;30.306;2022-08-01T13:56:13;6.63;;;2.38;;
41253;SDS011;26987;59.928;30.306;2022-08-01T13:58:42;7.10;;;2.25;;
41253;SDS011;26987;59.928;30.306;2022-08-01T14:01:11;6.68;;;3.00;;
41253;SDS011;26987;59.928;30.306;2022-08-01T14:03:39;6.80;;;3.35;;
41253;SDS011;26987;59.928;30.306;2022-08-01T14:06:07;5.97;;;2.70;;
41253;SDS011;26987;59.928;30.306;2022-08-01T14:08:35;4.72;;;2.25;;
41253;SDS011;26987;59.928;30.306;2022-08-01T14:11:03;4.35;;;2.08;;
41253;SDS011;26987;59.928;30.306;2022-08-01T14:13:31;5.38;;;2.40;;
41253;SDS011;26987;59.928;30.306;2022-08-01T14:16:00;5.00;;;1.92;;
41253;SDS011;26987;59.928;30.306;2022-08-01T14:18:30;5.80;;;2.05;;
41253;SDS011;26987;59.928;30.306;2022-08-01T14:20:58;2.50;;;1.63;;
41253;SDS011;26987;59.928;30.306;2022-08-01T14:23:26;5.10;;;1.52;;
41253;SDS011;26987;59.928;30.306;2022-08-01T14:25:54;7.40;;;2.72;;
41253;SDS011;26987;59.928;30.306;2022-08-01T14:28:22;4.47;;;2.50;;
41253;SDS011;26987;59.928;30.306;2022-08-01T14:30:53;7.45;;;1.77;;
41253;SDS011;26987;59.928;30.306;2022-08-01T14:33:21;6.45;;;1.95;;
41253;SDS011;26987;59.928;30.306;2022-08-01T14:35:51;6.50;;;1.60;;
41253;SDS011;26987;59.928;30.306;2022-08-01T14:38:19;3.50;;;1.83;;
41253;SDS011;26987;59.928;30.306;2022-08-01T14:40:47;4.13;;;1.40;;
41253;SDS011;26987;59.928;30.306;2022-08-01T14:43:17;3.17;;;1.35;;
41253;SDS011;26987;59.928;30.306;2022-08-01T14:45:45;4.35;;;1.85;;
41253;SDS011;26987;59.928;30.306;2022-08-01T14:48:15;8.50;;;2.50;;
41253;SDS011;26987;59.928;30.306;2022-08-01T14:50:43;3.17;;;1.30;;
41253;SDS011;26987;59.928;30.306;2022-08-01T14:53:12;5.10;;;1.70;;
41253;SDS011;26987;59.928;30.306;2022-08-01T14:55:41;3.40;;;1.73;;
41253;SDS011;26987;59.928;30.306;2022-08-01T14:58:09;3.15;;;1.58;;
41253;SDS011;26987;59.928;30.306;2022-08-01T15:00:36;5.10;;;1.55;;
41253;SDS011;26987;59.928;30.306;2022-08-01T15:03:04;3.60;;;1.75;;
41253;SDS011;26987;59.928;30.306;2022-08-01T15:05:32;2.20;;;1.38;;
41253;SDS011;26987;59.928;30.306;2022-08-01T15:08:01;5.10;;;1.58;;